Time;durP1;ratioP1;P1;durP2;ratioP2;P2;SDS_P1;SDS_P2;PMS_P1;PMS_P2;Temp;Humidity;BMP_temperature;BMP_pressure;BME280_temperature;BME280_humidity;BME280_pressure;Samples;Min_cycle;Max_cycle;Signal;HPM_P1;HPM_P2
2023/11/10 00:00:10;;;;;;;9.70;2.35;;;;;;;5.96;100.00;98104.19;5060774;28;20071;-42
2023/11/10 00:02:42;;;;;;;15.05;2.70;;;;;;;5.97;100.00;98105.00;5042998;28;20052;-41
2023/11/10 00:05:10;;;;;;;7.68;2.70;;;;;;;5.95;100.00;98112.81;5037023;28;20044;-40
2023/11/10 00:07:39;;;;;;;7.97;2.28;;;;;;;5.96;100.00;98103.41;5044431;28;20049;-42
2023/11/10 00:10:07;;;;;;;7.80;2.67;;;;;;;5.97;100.00;98099.50;5045026;28;20493;-41
2023/11/10 00:12:34;;;;;;;13.30;3.15;;;;;;;5.98;100.00;98101.09;5035191;28;20042;-40
2023/11/10 00:15:02;;;;;;;9.48;2.53;;;;;;;5.99;100.00;98097.94;5046138;28;20052;-41
2023/11/10 00:17:28;;;;;;;8.52;2.10;;;;;;;5.98;100.00;98087.38;5046837;28;20037;-40
2023/11/10 00:19:57;;;;;;;14.10;2.65;;;;;;;5.96;100.00;98089.69;5045328;28;20100;-40
2023/11/10 00:22:24;;;;;;;8.93;2.70;;;;;;;5.92;100.00;98084.16;5046555;28;20041;-43
2023/11/10 00:24:52;;;;;;;12.07;2.65;;;;;;;5.91;100.00;98092.78;5042179;28;20045;-40
2023/11/10 00:27:19;;;;;;;12.00;2.60;;;;;;;5.90;100.00;98085.72;5041413;28;20064;-41
2023/11/10 00:29:47;;;;;;;9.30;2.53;;;;;;;5.90;100.00;98082.97;5043080;28;20073;-43
2023/11/10 00:32:14;;;;;;;11.73;3.15;;;;;;;5.89;100.00;98081.38;5033755;28;20167;-43
2023/11/10 00:34:41;;;;;;;9.00;2.42;;;;;;;5.88;100.00;98077.84;5038989;28;20045;-43
2023/11/10 00:37:08;;;;;;;14.88;2.30;;;;;;;5.86;100.00;98082.13;5047994;28;20053;-42
2023/11/10 00:39:36;;;;;;;13.25;4.13;;;;;;;5.85;100.00;98066.84;5049072;28;20808;-40
2023/11/10 00:42:03;;;;;;;12.75;2.67;;;;;;;5.82;100.00;98073.84;5050475;28;20040;-40
2023/11/10 00:44:29;;;;;;;8.43;2.63;;;;;;;5.81;100.00;98071.47;5032137;28;20506;-43
2023/11/10 00:46:56;;;;;;;10.68;2.30;;;;;;;5.78;100.00;98070.28;5050065;28;20091;-41
2023/11/10 00:49:23;;;;;;;6.85;2.30;;;;;;;5.77;100.00;98062.44;5049898;28;20487;-41
2023/11/10 00:51:50;;;;;;;16.83;3.15;;;;;;;5.75;100.00;98064.75;5044440;28;20041;-43
2023/11/10 00:54:17;;;;;;;13.30;4.38;;;;;;;5.74;100.00;98074.16;5050455;28;22075;-41
2023/11/10 00:56:44;;;;;;;15.50;3.42;;;;;;;5.73;100.00;98067.88;5049611;28;20072;-40
2023/11/10 00:59:11;;;;;;;15.82;3.65;;;;;;;5.73;100.00;98072.56;5049235;28;20469;-40
2023/11/10 01:01:38;;;;;;;14.10;3.08;;;;;;;5.74;100.00;98069.47;5049930;28;20048;-40
2023/11/10 01:04:06;;;;;;;15.05;4.03;;;;;;;5.75;100.00;98060.03;5049145;28;20041;-41
2023/11/10 01:06:33;;;;;;;13.10;3.20;;;;;;;5.79;100.00;98060.09;5049413;28;20041;-41
2023/11/10 01:09:03;;;;;;;7.68;3.03;;;;;;;5.83;100.00;98066.38;5049396;28;20049;-43
2023/11/10 01:11:29;;;;;;;13.18;2.35;;;;;;;5.86;100.00;98057.44;5049668;28;20148;-40
2023/11/10 01:13:56;;;;;;;15.50;3.22;;;;;;;5.91;100.00;98059.81;5029777;28;20533;-46
2023/11/10 01:16:24;;;;;;;12.77;3.83;;;;;;;5.96;100.00;98065.75;5045299;28;20063;-41
2023/11/10 01:18:51;;;;;;;11.20;3.47;;;;;;;5.99;100.00;98061.47;5041038;28;20037;-42
2023/11/10 01:21:18;;;;;;;14.10;3.35;;;;;;;6.04;100.00;98061.91;5049271;28;20513;-40
2023/11/10 01:23:45;;;;;;;17.77;4.03;;;;;;;6.10;100.00;98048.59;5031886;28;20045;-41
2023/11/10 01:26:13;;;;;;;18.23;4.40;;;;;;;6.14;100.00;98049.44;5047410;28;20390;-41
2023/11/10 01:28:39;;;;;;;8.52;2.45;;;;;;;6.17;100.00;98056.88;5042318;28;20038;-42
2023/11/10 01:31:06;;;;;;;17.17;5.07;;;;;;;6.20;100.00;98058.09;5047715;28;20037;-40
2023/11/10 01:33:33;;;;;;;9.70;2.55;;;;;;;6.24;100.00;98053.41;5046273;28;20049;-42
2023/11/10 01:36:00;;;;;;;14.70;3.88;;;;;;;6.27;100.00;98056.19;5047102;28;20378;-40
2023/11/10 01:38:27;;;;;;;15.25;3.50;;;;;;;6.30;100.00;98063.66;5048095;28;20036;-41
2023/11/10 01:40:54;;;;;;;12.75;3.05;;;;;;;6.33;100.00;98057.41;5048589;28;20131;-42
2023/11/10 01:43:22;;;;;;;9.60;2.67;;;;;;;6.35;100.00;98066.06;5049298;28;20032;-39
2023/11/10 01:45:49;;;;;;;10.55;2.78;;;;;;;6.37;100.00;98071.16;5048872;28;20037;-43
2023/11/10 01:48:17;;;;;;;11.38;2.33;;;;;;;6.38;100.00;98073.53;5048653;28;20399;-41
2023/11/10 01:50:44;;;;;;;7.28;2.50;;;;;;;6.39;100.00;98072.38;5047891;28;20080;-41
2023/11/10 01:53:13;;;;;;;6.28;2.08;;;;;;;6.41;100.00;98071.97;5031069;28;20095;-42
2023/11/10 01:55:41;;;;;;;7.03;2.17;;;;;;;6.42;100.00;98077.09;5048688;28;20051;-40
2023/11/10 01:58:08;;;;;;;5.75;2.28;;;;;;;6.43;100.00;98077.91;5047579;28;20778;-42
2023/11/10 02:00:38;;;;;;;10.15;1.77;;;;;;;6.42;100.00;98085.34;5048003;28;20076;-45
2023/11/10 02:03:07;;;;;;;8.85;2.33;;;;;;;6.42;100.00;98085.34;5067783;28;20045;-42
2023/11/10 02:05:35;;;;;;;7.05;1.30;;;;;;;6.42;100.00;98081.81;5068979;28;20417;-43
2023/11/10 02:08:03;;;;;;;8.25;1.45;;;;;;;6.43;100.00;98083.41;5068067;28;20390;-41
2023/11/10 02:10:31;;;;;;;8.00;2.30;;;;;;;6.43;100.00;98089.69;5068675;28;20051;-41
2023/11/10 02:12:59;;;;;;;7.38;3.22;;;;;;;6.44;100.00;98091.25;5067434;28;20044;-41
2023/11/10 02:15:27;;;;;;;5.53;1.48;;;;;;;6.44;100.00;98094.00;5067742;28;20402;-41
2023/11/10 02:17:55;;;;;;;9.25;2.17;;;;;;;6.44;100.00;98099.50;5067894;28;20139;-39
2023/11/10 02:20:23;;;;;;;7.53;1.58;;;;;;;6.44;100.00;98096.75;5068806;28;20152;-42
2023/11/10 02:22:51;;;;;;;6.80;1.77;;;;;;;6.45;100.00;98097.53;5067761;28;20048;-41
2023/11/10 02:25:19;;;;;;;5.32;1.55;;;;;;;6.45;100.00;98098.31;5068289;28;20037;-40
2023/11/10 02:27:47;;;;;;;6.45;1.65;;;;;;;6.46;100.00;98097.13;5063305;28;20037;-42
2023/11/10 02:30:14;;;;;;;9.27;1.73;;;;;;;6.46;100.00;98102.63;5057271;28;20041;-39
2023/11/10 02:32:42;;;;;;;5.60;1.20;;;;;;;6.49;100.00;98106.56;5061508;28;20029;-39
2023/11/10 02:35:11;;;;;;;6.57;1.55;;;;;;;6.48;100.00;98096.78;5059416;28;20044;-39
2023/11/10 02:37:37;;;;;;;11.20;2.13;;;;;;;6.49;100.00;98101.88;5068156;28;20051;-43
2023/11/10 02:40:07;;;;;;;9.93;1.90;;;;;;;6.49;100.00;98103.81;5065172;28;20151;-45
2023/11/10 02:42:34;;;;;;;3.47;1.52;;;;;;;6.48;100.00;98107.78;5068098;28;20444;-41
2023/11/10 02:45:03;;;;;;;8.15;1.90;;;;;;;6.48;100.00;98108.56;5066639;28;20194;-40
2023/11/10 02:47:30;;;;;;;6.63;1.75;;;;;;;6.48;100.00;98122.31;5067120;28;20413;-40
2023/11/10 02:49:57;;;;;;;6.53;1.70;;;;;;;6.49;100.00;98115.63;5066700;28;20036;-41
2023/11/10 02:52:25;;;;;;;7.72;1.85;;;;;;;6.50;100.00;98121.91;5067737;28;20032;-44
2023/11/10 02:54:52;;;;;;;8.35;2.65;;;;;;;6.49;100.00;98126.63;5067288;28;20040;-41
2023/11/10 02:57:21;;;;;;;11.50;1.60;;;;;;;6.49;100.00;98132.09;5067932;28;20051;-40
2023/11/10 02:59:50;;;;;;;5.70;1.75;;;;;;;6.50;100.00;98143.91;5065304;28;20094;-43
2023/11/10 03:02:18;;;;;;;11.73;2.20;;;;;;;6.49;100.00;98143.09;5124386;22;20065;-43
2023/11/10 03:04:45;;;;;;;6.25;2.60;;;;;;;6.49;100.00;98143.09;5047551;28;20037;-44
2023/11/10 03:07:12;;;;;;;8.65;2.95;;;;;;;6.49;100.00;98154.09;5047053;28;20041;-43
2023/11/10 03:09:42;;;;;;;8.13;2.80;;;;;;;6.49;100.00;98151.34;5046440;28;20033;-42
2023/11/10 03:12:09;;;;;;;9.77;2.25;;;;;;;6.49;100.00;98158.78;5047187;28;20163;-43
2023/11/10 03:14:36;;;;;;;6.18;1.95;;;;;;;6.50;100.00;98160.38;5046765;28;20513;-43
2023/11/10 03:17:05;;;;;;;10.25;2.13;;;;;;;6.50;100.00;98165.88;5047291;28;20099;-46
2023/11/10 03:19:33;;;;;;;8.93;2.03;;;;;;;6.50;100.00;98176.88;5043557;28;20036;-46
2023/11/10 03:22:00;;;;;;;8.07;1.80;;;;;;;6.49;100.00;98176.09;5047171;28;20056;-42
2023/11/10 03:24:27;;;;;;;8.50;1.73;;;;;;;6.49;100.00;98181.56;5046848;28;20040;-43
2023/11/10 03:26:54;;;;;;;10.57;2.70;;;;;;;6.49;100.00;98184.31;5047138;28;20037;-43
2023/11/10 03:29:20;;;;;;;7.68;2.17;;;;;;;6.49;100.00;98192.56;5044066;28;20111;-44
2023/11/10 03:31:47;;;;;;;8.63;2.70;;;;;;;6.49;100.00;98197.28;5046765;28;20453;-44
2023/11/10 03:34:15;;;;;;;11.27;2.80;;;;;;;6.48;100.00;98213.00;5047000;28;20055;-47
2023/11/10 03:36:42;;;;;;;14.27;3.72;;;;;;;6.48;100.00;98213.00;5046435;28;20877;-43
2023/11/10 03:39:09;;;;;;;15.32;3.05;;;;;;;6.47;100.00;98216.91;5046979;28;20045;-42
2023/11/10 03:41:38;;;;;;;12.68;3.63;;;;;;;6.46;100.00;98220.81;5046476;28;20033;-43
2023/11/10 03:44:05;;;;;;;16.08;3.60;;;;;;;6.46;100.00;98225.53;5046320;28;20047;-43
2023/11/10 03:46:31;;;;;;;16.13;3.53;;;;;;;6.45;100.00;98241.25;5046998;28;20056;-43
2023/11/10 03:48:59;;;;;;;22.92;4.32;;;;;;;6.43;100.00;98249.06;5046575;28;20071;-44
2023/11/10 03:51:26;;;;;;;12.55;3.22;;;;;;;6.43;100.00;98237.28;5046615;28;20037;-45
2023/11/10 03:53:53;;;;;;;9.98;3.65;;;;;;;6.41;100.00;98245.91;5046497;28;20102;-42
2023/11/10 03:56:20;;;;;;;12.25;3.40;;;;;;;6.40;100.00;98249.03;5047044;28;20127;-42
2023/11/10 03:58:48;;;;;;;13.77;3.92;;;;;;;6.38;100.00;98254.88;5047125;28;20115;-42
2023/11/10 04:01:15;;;;;;;18.45;4.28;;;;;;;6.38;100.00;98260.38;5051428;28;20044;-41
2023/11/10 04:03:42;;;;;;;13.48;3.47;;;;;;;6.35;100.00;98257.63;5066765;28;20045;-43
2023/11/10 04:06:09;;;;;;;8.27;4.10;;;;;;;6.35;100.00;98266.66;5066303;28;20834;-42
2023/11/10 04:08:36;;;;;;;22.02;5.18;;;;;;;6.34;100.00;98278.81;5066993;28;20075;-44
2023/11/10 04:11:03;;;;;;;13.20;4.03;;;;;;;6.33;100.00;98277.22;5049342;28;20068;-43
2023/11/10 04:13:30;;;;;;;15.07;4.60;;;;;;;6.34;100.00;98286.25;5070103;28;20051;-43
2023/11/10 04:15:56;;;;;;;24.35;6.68;;;;;;;6.34;100.00;98297.25;5069770;28;20072;-44
2023/11/10 04:18:27;;;;;;;15.75;4.63;;;;;;;6.32;100.00;98308.63;5070664;28;20685;-45
2023/11/10 04:20:55;;;;;;;20.45;5.53;;;;;;;6.28;100.00;98307.78;5070612;28;20097;-46
2023/11/10 04:23:22;;;;;;;14.63;4.93;;;;;;;6.25;100.00;98319.53;5070405;28;20044;-46
2023/11/10 04:25:49;;;;;;;17.15;5.55;;;;;;;6.22;100.00;98323.03;5069620;28;20102;-47
2023/11/10 04:28:16;;;;;;;14.80;6.35;;;;;;;6.21;100.00;98317.91;5070348;28;20041;-46
2023/11/10 04:30:44;;;;;;;14.10;5.93;;;;;;;6.19;100.00;98326.53;5069759;28;20052;-43
2023/11/10 04:33:11;;;;;;;12.63;5.68;;;;;;;6.16;100.00;98331.97;5066477;28;20029;-46
2023/11/10 04:35:38;;;;;;;14.98;5.93;;;;;;;6.12;100.00;98334.69;5065426;28;20048;-46
2023/11/10 04:38:08;;;;;;;17.05;6.38;;;;;;;6.05;100.00;98349.13;5061532;28;20045;-45
2023/11/10 04:40:36;;;;;;;19.90;9.95;;;;;;;6.04;100.00;98357.72;5066912;28;20045;-44
2023/11/10 04:43:02;;;;;;;16.35;7.03;;;;;;;6.02;100.00;98360.06;5068988;28;20122;-43
2023/11/10 04:45:29;;;;;;;26.60;8.02;;;;;;;5.99;100.00;98371.78;5051254;28;20046;-46
2023/11/10 04:47:56;;;;;;;19.58;8.15;;;;;;;5.97;100.00;98376.88;5069654;28;20383;-48
2023/11/10 04:50:23;;;;;;;16.83;7.63;;;;;;;5.94;100.00;98381.16;5070374;28;20068;-46
2023/11/10 04:52:51;;;;;;;14.88;8.00;;;;;;;5.95;100.00;98387.44;5069585;28;20049;-47
2023/11/10 04:55:18;;;;;;;28.67;8.20;;;;;;;5.94;100.00;98396.84;5070049;28;20040;-42
2023/11/10 04:57:46;;;;;;;15.88;7.72;;;;;;;5.90;100.00;98407.78;5070065;28;20143;-46
2023/11/10 05:00:13;;;;;;;18.90;7.13;;;;;;;5.87;100.00;98430.50;5069167;28;20120;-48
2023/11/10 05:02:44;;;;;;;14.98;7.07;;;;;;;5.85;100.00;98427.28;5069338;28;20131;-46
2023/11/10 05:05:13;;;;;;;19.70;6.97;;;;;;;5.84;100.00;98450.41;5069211;28;20490;-43
2023/11/10 05:07:41;;;;;;;13.98;6.68;;;;;;;5.84;100.00;98457.84;5069477;28;20041;-42
2023/11/10 05:10:09;;;;;;;16.00;5.95;;;;;;;5.83;100.00;98472.72;5056638;28;20025;-41
2023/11/10 05:12:37;;;;;;;20.38;5.75;;;;;;;5.83;100.00;98479.03;5069683;28;20555;-42
2023/11/10 05:15:07;;;;;;;14.30;6.03;;;;;;;5.83;100.00;98489.22;5068608;28;20044;-42
2023/11/10 05:17:39;;;;;;;19.48;5.88;;;;;;;5.83;100.00;98495.50;5068279;28;20545;-42
2023/11/10 05:20:10;;;;;;;12.63;5.82;;;;;;;5.82;100.00;98498.63;5064274;28;20070;-43
2023/11/10 05:22:39;;;;;;;13.23;6.28;;;;;;;5.81;100.00;98502.53;5069097;28;20098;-42
2023/11/10 05:25:07;;;;;;;12.57;5.80;;;;;;;5.81;100.00;98502.53;5067863;28;20061;-43
2023/11/10 05:27:34;;;;;;;18.65;6.40;;;;;;;5.79;100.00;98518.56;5068849;28;20037;-43
2023/11/10 05:30:01;;;;;;;16.70;5.85;;;;;;;5.75;100.00;98521.25;5068527;28;20049;-44
2023/11/10 05:32:27;;;;;;;19.77;6.85;;;;;;;5.72;100.00;98532.19;5068608;28;20394;-42
2023/11/10 05:34:54;;;;;;;12.73;5.90;;;;;;;5.68;100.00;98534.88;5068743;28;20557;-42
2023/11/10 05:37:21;;;;;;;10.95;5.13;;;;;;;5.65;100.00;98532.84;5069094;28;20086;-45
2023/11/10 05:39:50;;;;;;;9.45;5.13;;;;;;;5.61;100.00;98543.00;5069067;28;20040;-43
2023/11/10 05:42:18;;;;;;;12.02;4.65;;;;;;;5.59;100.00;98553.53;5069190;28;20044;-44
2023/11/10 05:44:45;;;;;;;15.75;6.45;;;;;;;5.54;100.00;98571.09;5068555;28;20044;-43
2023/11/10 05:47:12;;;;;;;14.98;6.40;;;;;;;5.52;100.00;98578.91;5068323;28;20033;-43
2023/11/10 05:49:41;;;;;;;12.48;5.40;;;;;;;5.50;100.00;98585.91;5068440;28;20044;-42
2023/11/10 05:52:11;;;;;;;11.02;5.28;;;;;;;5.45;100.00;98595.22;5051095;28;20032;-42
2023/11/10 05:54:40;;;;;;;13.77;6.25;;;;;;;5.43;100.00;98605.78;5068591;28;20135;-42
2023/11/10 05:57:07;;;;;;;15.77;7.63;;;;;;;5.39;100.00;98621.38;5068685;28;20102;-43
2023/11/10 05:59:33;;;;;;;12.02;5.93;;;;;;;5.36;100.00;98635.03;5068115;28;20040;-43
2023/11/10 06:02:02;;;;;;;18.67;6.95;;;;;;;5.33;100.00;98650.25;5067121;28;20091;-44
2023/11/10 06:04:29;;;;;;;13.70;5.78;;;;;;;5.34;100.00;98660.09;5068391;28;20124;-42
2023/11/10 06:07:02;;;;;;;16.40;6.60;;;;;;;5.34;100.00;98659.28;5068054;28;20089;-42
2023/11/10 06:09:31;;;;;;;10.30;5.50;;;;;;;5.35;100.00;98658.13;5068334;28;20162;-42
2023/11/10 06:11:58;;;;;;;13.93;6.93;;;;;;;5.34;100.00;98676.56;5064299;28;20040;-44
2023/11/10 06:14:25;;;;;;;11.35;6.05;;;;;;;5.34;100.00;98681.25;5067884;28;20028;-43
2023/11/10 06:16:52;;;;;;;11.23;6.63;;;;;;;5.34;100.00;98690.28;5067404;28;20044;-43
2023/11/10 06:19:19;;;;;;;13.93;6.68;;;;;;;5.36;100.00;98701.69;5068282;28;20424;-44
2023/11/10 06:21:46;;;;;;;15.95;7.57;;;;;;;5.37;100.00;98702.47;5067928;28;20613;-43
2023/11/10 06:24:12;;;;;;;16.13;8.68;;;;;;;5.39;100.00;98698.22;5068093;28;20120;-44
2023/11/10 06:26:39;;;;;;;18.15;9.10;;;;;;;5.40;100.00;98705.28;5067974;28;20117;-43
2023/11/10 06:29:07;;;;;;;18.60;10.32;;;;;;;5.40;100.00;98710.75;5058982;28;20045;-42
2023/11/10 06:31:34;;;;;;;21.15;11.25;;;;;;;5.39;100.00;98717.41;5067573;28;20371;-42
2023/11/10 06:34:02;;;;;;;20.38;11.07;;;;;;;5.36;100.00;98734.59;5067179;28;20449;-45
2023/11/10 06:36:29;;;;;;;19.20;11.35;;;;;;;5.35;100.00;98748.66;5067576;28;20036;-42
2023/11/10 06:38:55;;;;;;;22.90;12.35;;;;;;;5.33;100.00;98761.94;5067751;28;20051;-43
2023/11/10 06:41:22;;;;;;;23.67;11.55;;;;;;;5.32;100.00;98771.34;5067557;28;20091;-44
2023/11/10 06:43:49;;;;;;;21.85;11.32;;;;;;;5.28;100.00;98774.00;5067112;28;20037;-46
2023/11/10 06:46:20;;;;;;;24.02;10.98;;;;;;;5.27;100.00;98783.38;5067569;28;20044;-41
2023/11/10 06:48:47;;;;;;;17.85;11.23;;;;;;;5.24;100.00;98786.84;5066913;28;20480;-43
2023/11/10 06:51:15;;;;;;;28.88;11.68;;;;;;;5.21;100.00;98795.81;5067378;28;20036;-42
2023/11/10 06:53:41;;;;;;;22.45;12.07;;;;;;;5.18;100.00;98802.00;5067464;28;20044;-42
2023/11/10 06:56:09;;;;;;;22.33;11.45;;;;;;;5.17;100.00;98808.63;5066980;28;20149;-43
2023/11/10 06:58:37;;;;;;;20.63;11.15;;;;;;;5.14;100.00;98808.53;5063777;28;20053;-43
2023/11/10 07:01:05;;;;;;;21.00;11.38;;;;;;;5.11;100.00;98820.25;5064941;28;20052;-42
2023/11/10 07:03:32;;;;;;;23.40;12.93;;;;;;;5.08;100.00;98819.00;5067131;28;20033;-42
2023/11/10 07:06:00;;;;;;;22.90;12.85;;;;;;;5.05;100.00;98833.44;5066857;28;20588;-42
2023/11/10 07:08:27;;;;;;;20.13;12.60;;;;;;;5.04;100.00;98833.75;5067583;28;20086;-43
2023/11/10 07:10:58;;;;;;;24.90;13.90;;;;;;;5.01;100.00;98848.97;5067595;28;20040;-43
2023/11/10 07:13:26;;;;;;;27.77;13.60;;;;;;;4.99;100.00;98854.03;5066919;28;20052;-42
2023/11/10 07:15:54;;;;;;;28.50;15.73;;;;;;;4.98;100.00;98863.41;5066638;28;20117;-44
2023/11/10 07:18:22;;;;;;;25.50;13.48;;;;;;;4.98;100.00;98860.66;5062270;28;20040;-45
2023/11/10 07:20:49;;;;;;;21.35;12.43;;;;;;;4.97;100.00;98867.31;5067138;28;20128;-45
2023/11/10 07:23:16;;;;;;;22.70;12.85;;;;;;;4.96;100.00;98871.19;5067143;28;20536;-43
2023/11/10 07:25:43;;;;;;;25.33;14.20;;;;;;;4.95;100.00;98877.03;5066801;28;20051;-41
2023/11/10 07:28:11;;;;;;;20.88;12.02;;;;;;;4.93;100.00;98885.59;5065540;28;20063;-42
2023/11/10 07:30:39;;;;;;;24.45;12.50;;;;;;;4.92;100.00;98897.72;5064918;28;20037;-42
2023/11/10 07:33:07;;;;;;;22.08;11.88;;;;;;;4.90;100.00;98908.25;5056022;28;20098;-43
2023/11/10 07:35:36;;;;;;;20.63;11.75;;;;;;;4.88;100.00;98914.09;5055704;28;20418;-42
2023/11/10 07:38:03;;;;;;;20.42;11.40;;;;;;;4.86;100.00;98934.78;5047612;28;20045;-42
2023/11/10 07:40:30;;;;;;;18.77;10.73;;;;;;;4.86;100.00;98938.31;5049092;28;20040;-44
2023/11/10 07:42:57;;;;;;;23.23;10.90;;;;;;;4.83;100.00;98952.72;5058891;28;20052;-42
2023/11/10 07:45:24;;;;;;;24.92;11.35;;;;;;;4.83;100.00;98949.19;5063035;28;20705;-43
2023/11/10 07:47:52;;;;;;;19.65;11.25;;;;;;;4.82;100.00;98955.81;5069366;28;20079;-42
2023/11/10 07:50:19;;;;;;;19.77;10.02;;;;;;;4.81;100.00;98948.75;5071302;28;20037;-45
2023/11/10 07:52:46;;;;;;;20.58;10.25;;;;;;;4.81;100.00;98965.19;5071477;28;20090;-43
2023/11/10 07:55:14;;;;;;;17.65;9.27;;;;;;;4.81;100.00;98976.16;5071086;28;20041;-43
2023/11/10 07:57:42;;;;;;;24.58;10.35;;;;;;;4.80;100.00;98969.06;5070984;28;20043;-42
2023/11/10 08:00:16;;;;;;;18.20;9.43;;;;;;;4.76;100.00;98974.47;5049535;28;20077;-43
2023/11/10 08:02:43;;;;;;;14.95;9.55;;;;;;;4.77;100.00;98988.97;5052673;28;20045;-42
2023/11/10 08:05:10;;;;;;;17.15;8.80;;;;;;;4.76;100.00;98993.66;5069614;28;20036;-42
2023/11/10 08:07:37;;;;;;;20.42;8.38;;;;;;;4.74;100.00;99004.16;5070870;28;20097;-43
2023/11/10 08:10:05;;;;;;;15.50;7.85;;;;;;;4.74;100.00;99008.84;5070901;28;20025;-48
2023/11/10 08:12:32;;;;;;;17.17;7.85;;;;;;;4.74;100.00;99017.06;5069718;28;20043;-43
2023/11/10 08:15:00;;;;;;;14.02;7.00;;;;;;;4.76;100.00;99029.31;5070012;28;20063;-44
2023/11/10 08:17:29;;;;;;;16.02;6.43;;;;;;;4.79;100.00;99025.06;5069287;28;20157;-44
2023/11/10 08:19:57;;;;;;;15.15;7.38;;;;;;;4.82;100.00;99036.13;5069366;28;20486;-48
2023/11/10 08:22:24;;;;;;;9.77;5.45;;;;;;;4.82;100.00;99032.56;5071195;28;20433;-44
2023/11/10 08:24:55;;;;;;;9.77;5.30;;;;;;;4.83;100.00;99045.16;5061926;28;20561;-43
2023/11/10 08:27:23;;;;;;;10.63;5.90;;;;;;;4.85;100.00;99048.31;5071069;28;20461;-44
2023/11/10 08:29:49;;;;;;;9.73;5.32;;;;;;;4.88;100.00;99064.09;5063482;28;20385;-47
2023/11/10 08:32:16;;;;;;;9.98;5.40;;;;;;;4.88;100.00;99053.13;5067503;28;20075;-45
2023/11/10 08:34:43;;;;;;;9.60;5.53;;;;;;;4.89;100.00;99062.94;5068952;28;20078;-44
2023/11/10 08:37:10;;;;;;;8.70;4.68;;;;;;;4.90;100.00;99073.56;5069197;28;20085;-44
2023/11/10 08:39:36;;;;;;;8.50;5.22;;;;;;;4.92;100.00;99084.19;5060754;28;20444;-45
2023/11/10 08:42:04;;;;;;;9.95;4.93;;;;;;;4.94;100.00;99084.63;5068457;28;20052;-45
2023/11/10 08:44:31;;;;;;;12.35;5.75;;;;;;;4.95;100.00;99086.22;5069246;28;20093;-45
2023/11/10 08:46:58;;;;;;;9.30;4.80;;;;;;;4.97;100.00;99096.84;5067631;28;20814;-49
2023/11/10 08:49:24;;;;;;;6.97;4.55;;;;;;;4.99;100.00;99108.25;5067088;28;20060;-47
2023/11/10 08:51:51;;;;;;;13.88;5.72;;;;;;;5.01;100.00;99111.44;5068547;28;20139;-44
2023/11/10 08:54:18;;;;;;;8.30;4.93;;;;;;;5.03;100.00;99118.19;5067691;28;20044;-45
2023/11/10 08:56:46;;;;;;;8.23;5.28;;;;;;;5.04;100.00;99119.78;5067635;28;20515;-43
2023/11/10 08:59:12;;;;;;;10.45;5.13;;;;;;;5.07;100.00;99124.59;5068570;28;20048;-43
2023/11/10 09:01:39;;;;;;;8.70;6.03;;;;;;;5.08;100.00;99123.44;5066938;28;20045;-42
2023/11/10 09:04:06;;;;;;;15.38;6.10;;;;;;;5.08;100.00;99134.44;5067678;28;20033;-40
2023/11/10 09:06:50;;;;;;;9.82;6.38;;;;;;;5.12;100.00;99129.03;5067286;28;20476;-43
2023/11/10 09:09:17;;;;;;;10.95;6.43;;;;;;;5.13;100.00;99136.13;5068784;28;20049;-44
2023/11/10 09:11:44;;;;;;;10.23;5.38;;;;;;;5.14;100.00;99148.66;5055552;28;20048;-44
2023/11/10 09:14:10;;;;;;;10.55;6.15;;;;;;;5.14;100.00;99160.44;5067629;28;20448;-43
2023/11/10 09:16:37;;;;;;;10.07;5.72;;;;;;;5.17;100.00;99162.50;5062721;28;20037;-44
2023/11/10 09:19:04;;;;;;;9.73;5.68;;;;;;;5.20;100.00;99170.03;5042919;28;20041;-43
2023/11/10 09:21:31;;;;;;;16.67;7.20;;;;;;;5.24;100.00;99162.69;5059800;28;20045;-43
2023/11/10 09:23:59;;;;;;;12.93;6.32;;;;;;;5.25;100.00;99166.22;5062071;28;20047;-43
2023/11/10 09:26:26;;;;;;;13.90;6.60;;;;;;;5.26;100.00;99167.84;5068194;28;20517;-44
2023/11/10 09:28:54;;;;;;;16.42;8.10;;;;;;;5.29;100.00;99173.44;5066776;28;20045;-43
2023/11/10 09:31:21;;;;;;;12.50;7.10;;;;;;;5.29;100.00;99173.44;5060445;28;20064;-43
2023/11/10 09:33:51;;;;;;;13.05;6.90;;;;;;;5.29;100.00;99178.94;5064058;28;20132;-43
2023/11/10 09:36:18;;;;;;;11.70;6.57;;;;;;;5.31;100.00;99170.34;5061075;28;20051;-41
2023/11/10 09:38:45;;;;;;;14.85;8.50;;;;;;;5.33;100.00;99174.34;5060722;28;20094;-41
2023/11/10 09:41:16;;;;;;;16.48;6.90;;;;;;;5.36;100.00;99181.88;5067471;28;20143;-43
2023/11/10 09:43:48;;;;;;;9.70;6.28;;;;;;;5.37;100.00;99180.75;5049384;28;20460;-45
2023/11/10 09:46:18;;;;;;;10.80;5.35;;;;;;;5.40;100.00;99182.75;5063730;28;20064;-42
2023/11/10 09:48:46;;;;;;;9.00;5.28;;;;;;;5.42;100.00;99179.69;5066597;28;20127;-47
2023/11/10 09:51:13;;;;;;;9.40;5.90;;;;;;;5.46;100.00;99194.28;5066590;28;20036;-44
2023/11/10 09:53:41;;;;;;;13.75;5.88;;;;;;;5.48;100.00;99195.53;5067264;28;20120;-43
2023/11/10 09:56:10;;;;;;;10.68;7.07;;;;;;;5.52;100.00;99201.13;5066913;28;20040;-41
2023/11/10 09:58:38;;;;;;;10.25;6.28;;;;;;;5.53;100.00;99202.75;5067319;28;20041;-45
2023/11/10 10:01:06;;;;;;;9.65;6.00;;;;;;;5.57;100.00;99205.56;5066429;28;20059;-46
2023/11/10 10:03:36;;;;;;;11.05;5.95;;;;;;;5.60;100.00;99207.63;5067283;28;20029;-42
2023/11/10 10:06:04;;;;;;;7.90;5.68;;;;;;;5.61;100.00;99206.47;5066808;28;20509;-42
2023/11/10 10:08:31;;;;;;;8.43;5.20;;;;;;;5.65;100.00;99226.59;5054659;28;20139;-44
2023/11/10 10:10:57;;;;;;;10.52;5.57;;;;;;;5.68;100.00;99225.88;5066546;28;20045;-45
2023/11/10 10:13:27;;;;;;;7.80;4.55;;;;;;;5.70;100.00;99218.09;5066401;28;20040;-46
2023/11/10 10:16:05;;;;;;;12.45;4.30;;;;;;;5.74;100.00;99225.31;5066305;28;20046;-44
2023/11/10 10:18:33;;;;;;;7.97;4.10;;;;;;;5.78;100.00;99233.63;5067215;28;20041;-45
2023/11/10 10:21:00;;;;;;;7.05;4.25;;;;;;;5.82;100.00;99229.84;5065797;28;20136;-46
2023/11/10 10:23:27;;;;;;;4.32;3.45;;;;;;;5.87;100.00;99242.56;5066360;28;20071;-45
2023/11/10 10:25:57;;;;;;;7.80;3.15;;;;;;;5.89;100.00;99246.53;5066837;28;20048;-43
2023/11/10 10:28:24;;;;;;;4.60;3.17;;;;;;;5.95;100.00;99255.31;5061224;28;20580;-44
2023/11/10 10:30:51;;;;;;;11.40;5.30;;;;;;;5.98;100.00;99263.66;5062274;28;20579;-45
2023/11/10 10:33:18;;;;;;;14.00;4.28;;;;;;;6.03;100.00;99262.63;5066582;28;20078;-46
2023/11/10 10:35:45;;;;;;;9.98;3.88;;;;;;;6.09;100.00;99266.69;5066364;28;20140;-45
2023/11/10 10:38:14;;;;;;;5.88;3.45;;;;;;;6.12;100.00;99279.72;5066411;28;20067;-44
2023/11/10 10:40:43;;;;;;;6.43;3.85;;;;;;;6.17;100.00;99278.69;5065883;28;20075;-44
2023/11/10 10:43:11;;;;;;;5.55;3.13;;;;;;;6.20;100.00;99278.78;5065951;28;20182;-43
2023/11/10 10:45:40;;;;;;;10.23;4.88;;;;;;;6.23;100.00;99278.06;5065751;28;20039;-43
2023/11/10 10:48:08;;;;;;;11.13;3.33;;;;;;;6.28;100.00;99275.06;5063957;28;20051;-44
2023/11/10 10:50:37;;;;;;;6.38;2.50;;;;;;;6.33;100.00;99285.03;5066353;28;20094;-43
2023/11/10 10:53:07;;;;;;;7.60;2.40;;;;;;;6.35;100.00;99289.00;5065596;28;20067;-45
2023/11/10 10:55:37;;;;;;;7.97;2.83;;;;;;;6.41;100.00;99295.03;5065097;28;20036;-44
2023/11/10 10:58:04;;;;;;;4.80;2.72;;;;;;;6.46;100.00;99303.81;5065966;28;20041;-44
2023/11/10 11:00:32;;;;;;;5.07;3.22;;;;;;;6.52;100.00;99307.09;5065924;28;20028;-44
2023/11/10 11:03:08;;;;;;;4.90;2.47;;;;;;;6.55;100.00;99312.72;5065266;28;20401;-45
2023/11/10 11:05:48;;;;;;;5.18;2.08;;;;;;;6.59;100.00;99321.06;5053800;28;20044;-46
2023/11/10 11:08:52;;;;;;;4.30;2.15;;;;;;;6.63;100.00;99328.22;5064264;28;20036;-44
2023/11/10 11:11:52;;;;;;;3.60;2.80;;;;;;;6.68;100.00;99327.16;5061129;28;20149;-46
2023/11/10 11:14:53;;;;;;;4.88;1.33;;;;;;;6.71;100.00;99334.72;5064867;28;20041;-44
2023/11/10 11:17:50;;;;;;;4.78;1.92;;;;;;;6.77;100.00;99332.50;5057596;28;20123;-43
2023/11/10 11:20:17;;;;;;;3.75;2.25;;;;;;;6.80;100.00;99338.09;5044661;28;20063;-45
2023/11/10 11:22:44;;;;;;;5.40;2.28;;;;;;;6.87;100.00;99334.72;5047107;28;20045;-45
2023/11/10 11:25:12;;;;;;;5.53;1.63;;;;;;;6.92;100.00;99338.00;5065555;28;20490;-46
2023/11/10 11:27:39;;;;;;;3.30;1.60;;;;;;;6.96;100.00;99333.41;5063353;28;20047;-47
2023/11/10 11:30:11;;;;;;;3.55;1.70;;;;;;;7.02;100.00;99342.16;5063577;28;20036;-43